sensor_id;sensor_type;location;lat;lon;timestamp;P1;durP1;ratioP1;P2;durP2;ratioP2
44139;SDS011;29803;51.048;4.686;2022-10-16T00:00:23;5.00;;;1.73;;
44139;SDS011;29803;51.048;4.686;2022-10-16T00:02:56;5.03;;;1.83;;
44139;SDS011;29803;51.048;4.686;2022-10-16T00:05:27;2.88;;;1.60;;
44139;SDS011;29803;51.048;4.686;2022-10-16T00:07:58;8.70;;;2.17;;
44139;SDS011;29803;51.048;4.686;2022-10-16T00:10:29;6.90;;;1.85;;
44139;SDS011;29803;51.048;4.686;2022-10-16T00:12:59;4.70;;;2.15;;
44139;SDS011;29803;51.048;4.686;2022-10-16T00:15:33;7.57;;;1.80;;
44139;SDS011;29803;51.048;4.686;2022-10-16T00:18:06;6.93;;;2.20;;
44139;SDS011;29803;51.048;4.686;2022-10-16T00:20:36;5.13;;;1.92;;
44139;SDS011;29803;51.048;4.686;2022-10-16T00:23:07;5.15;;;1.95;;
44139;SDS011;29803;51.048;4.686;2022-10-16T00:25:38;5.97;;;2.08;;
44139;SDS011;29803;51.048;4.686;2022-10-16T00:28:08;6.00;;;1.92;;
44139;SDS011;29803;51.048;4.686;2022-10-16T00:30:39;3.00;;;1.60;;
44139;SDS011;29803;51.048;4.686;2022-10-16T00:33:12;4.82;;;1.70;;
44139;SDS011;29803;51.048;4.686;2022-10-16T00:35:42;3.63;;;1.55;;
44139;SDS011;29803;51.048;4.686;2022-10-16T00:38:13;3.83;;;1.67;;
44139;SDS011;29803;51.048;4.686;2022-10-16T00:40:44;4.35;;;1.58;;
44139;SDS011;29803;51.048;4.686;2022-10-16T00:48:50;4.38;;;1.60;;
44139;SDS011;29803;51.048;4.686;2022-10-16T00:51:30;4.43;;;1.70;;
44139;SDS011;29803;51.048;4.686;2022-10-16T00:54:08;7.15;;;1.88;;
44139;SDS011;29803;51.048;4.686;2022-10-16T00:56:42;3.38;;;1.35;;
44139;SDS011;29803;51.048;4.686;2022-10-16T00:59:27;2.65;;;1.48;;
44139;SDS011;29803;51.048;4.686;2022-10-16T01:02:01;4.25;;;1.60;;
44139;SDS011;29803;51.048;4.686;2022-10-16T01:04:40;6.95;;;1.40;;
44139;SDS011;29803;51.048;4.686;2022-10-16T01:07:25;7.82;;;1.48;;
44139;SDS011;29803;51.048;4.686;2022-10-16T01:12:34;1.50;;;0.95;;
44139;SDS011;29803;51.048;4.686;2022-10-16T01:15:22;6.15;;;1.60;;
44139;SDS011;29803;51.048;4.686;2022-10-16T01:20:50;3.95;;;1.17;;
44139;SDS011;29803;51.048;4.686;2022-10-16T01:26:20;2.63;;;1.00;;
44139;SDS011;29803;51.048;4.686;2022-10-16T01:29:21;3.03;;;1.02;;
44139;SDS011;29803;51.048;4.686;2022-10-16T01:32:02;3.90;;;0.98;;
44139;SDS011;29803;51.048;4.686;2022-10-16T01:37:47;9.57;;;1.33;;
44139;SDS011;29803;51.048;4.686;2022-10-16T01:40:26;2.30;;;1.20;;
44139;SDS011;29803;51.048;4.686;2022-10-16T01:43:04;6.63;;;1.15;;
44139;SDS011;29803;51.048;4.686;2022-10-16T01:45:38;3.58;;;1.20;;
44139;SDS011;29803;51.048;4.686;2022-10-16T01:48:13;4.40;;;1.42;;
44139;SDS011;29803;51.048;4.686;2022-10-16T01:50:59;2.65;;;1.20;;
44139;SDS011;29803;51.048;4.686;2022-10-16T01:53:34;2.78;;;1.65;;
44139;SDS011;29803;51.048;4.686;2022-10-16T01:56:07;2.83;;;1.20;;
44139;SDS011;29803;51.048;4.686;2022-10-16T01:58:42;2.22;;;1.20;;
44139;SDS011;29803;51.048;4.686;2022-10-16T02:01:18;6.00;;;1.33;;
44139;SDS011;29803;51.048;4.686;2022-10-16T02:03:52;1.95;;;1.20;;
44139;SDS011;29803;51.048;4.686;2022-10-16T02:08:57;2.15;;;1.30;;
44139;SDS011;29803;51.048;4.686;2022-10-16T02:11:31;3.50;;;1.30;;
44139;SDS011;29803;51.048;4.686;2022-10-16T02:14:02;1.77;;;1.13;;
44139;SDS011;29803;51.048;4.686;2022-10-16T02:16:44;6.00;;;1.27;;
44139;SDS011;29803;51.048;4.686;2022-10-16T02:19:19;3.83;;;1.17;;
44139;SDS011;29803;51.048;4.686;2022-10-16T02:21:51;3.67;;;1.10;;
44139;SDS011;29803;51.048;4.686;2022-10-16T02:29:41;5.85;;;1.30;;
44139;SDS011;29803;51.048;4.686;2022-10-16T02:32:20;1.70;;;1.20;;
44139;SDS011;29803;51.048;4.686;2022-10-16T02:34:53;4.50;;;1.20;;
44139;SDS011;29803;51.048;4.686;2022-10-16T02:37:25;2.90;;;1.13;;
44139;SDS011;29803;51.048;4.686;2022-10-16T02:39:57;2.15;;;1.17;;
44139;SDS011;29803;51.048;4.686;2022-10-16T02:42:31;2.80;;;1.30;;
44139;SDS011;29803;51.048;4.686;2022-10-16T02:45:04;1.48;;;0.95;;
44139;SDS011;29803;51.048;4.686;2022-10-16T02:47:36;1.50;;;1.08;;
44139;SDS011;29803;51.048;4.686;2022-10-16T02:50:10;3.20;;;1.10;;
44139;SDS011;29803;51.048;4.686;2022-10-16T02:52:40;5.93;;;1.40;;
44139;SDS011;29803;51.048;4.686;2022-10-16T02:55:11;6.20;;;1.30;;
44139;SDS011;29803;51.048;4.686;2022-10-16T02:57:42;3.47;;;1.17;;
44139;SDS011;29803;51.048;4.686;2022-10-16T03:00:13;4.03;;;1.50;;
44139;SDS011;29803;51.048;4.686;2022-10-16T03:02:45;6.22;;;1.30;;
44139;SDS011;29803;51.048;4.686;2022-10-16T03:05:17;4.03;;;1.50;;
44139;SDS011;29803;51.048;4.686;2022-10-16T03:07:48;4.45;;;1.50;;
44139;SDS011;29803;51.048;4.686;2022-10-16T03:10:20;4.80;;;1.30;;
44139;SDS011;29803;51.048;4.686;2022-10-16T03:12:51;2.22;;;1.33;;
44139;SDS011;29803;51.048;4.686;2022-10-16T03:15:22;3.72;;;1.27;;
44139;SDS011;29803;51.048;4.686;2022-10-16T03:17:53;7.72;;;1.58;;
44139;SDS011;29803;51.048;4.686;2022-10-16T03:20:24;6.18;;;1.20;;
44139;SDS011;29803;51.048;4.686;2022-10-16T03:22:55;13.02;;;1.92;;
44139;SDS011;29803;51.048;4.686;2022-10-16T03:25:28;3.25;;;1.67;;
44139;SDS011;29803;51.048;4.686;2022-10-16T03:27:59;3.95;;;1.40;;
44139;SDS011;29803;51.048;4.686;2022-10-16T03:30:29;2.03;;;1.40;;
44139;SDS011;29803;51.048;4.686;2022-10-16T03:33:00;3.00;;;1.70;;
44139;SDS011;29803;51.048;4.686;2022-10-16T03:35:31;8.02;;;1.80;;
44139;SDS011;29803;51.048;4.686;2022-10-16T03:38:02;3.60;;;1.55;;
44139;SDS011;29803;51.048;4.686;2022-10-16T03:40:33;5.15;;;1.63;;
44139;SDS011;29803;51.048;4.686;2022-10-16T03:43:04;9.13;;;1.60;;
44139;SDS011;29803;51.048;4.686;2022-10-16T03:45:34;2.13;;;1.48;;
44139;SDS011;29803;51.048;4.686;2022-10-16T03:48:05;3.38;;;1.40;;
44139;SDS011;29803;51.048;4.686;2022-10-16T03:50:36;4.57;;;1.80;;
44139;SDS011;29803;51.048;4.686;2022-10-16T03:53:07;6.00;;;2.00;;
44139;SDS011;29803;51.048;4.686;2022-10-16T03:55:37;4.55;;;1.85;;
44139;SDS011;29803;51.048;4.686;2022-10-16T03:58:08;3.95;;;1.52;;
44139;SDS011;29803;51.048;4.686;2022-10-16T04:00:41;4.35;;;1.80;;
44139;SDS011;29803;51.048;4.686;2022-10-16T04:03:17;4.85;;;1.95;;
44139;SDS011;29803;51.048;4.686;2022-10-16T04:05:49;3.25;;;1.90;;
44139;SDS011;29803;51.048;4.686;2022-10-16T04:08:19;4.40;;;1.60;;
44139;SDS011;29803;51.048;4.686;2022-10-16T04:10:50;4.65;;;1.70;;
44139;SDS011;29803;51.048;4.686;2022-10-16T04:13:21;6.18;;;2.20;;
44139;SDS011;29803;51.048;4.686;2022-10-16T04:15:51;2.72;;;1.52;;
44139;SDS011;29803;51.048;4.686;2022-10-16T04:18:22;2.83;;;1.75;;
44139;SDS011;29803;51.048;4.686;2022-10-16T04:20:53;3.25;;;1.65;;
44139;SDS011;29803;51.048;4.686;2022-10-16T04:23:27;4.20;;;2.05;;
44139;SDS011;29803;51.048;4.686;2022-10-16T04:25:57;4.22;;;1.63;;
44139;SDS011;29803;51.048;4.686;2022-10-16T04:28:29;7.18;;;1.77;;
44139;SDS011;29803;51.048;4.686;2022-10-16T04:31:00;4.13;;;1.80;;
44139;SDS011;29803;51.048;4.686;2022-10-16T04:33:36;4.63;;;1.73;;
44139;SDS011;29803;51.048;4.686;2022-10-16T04:36:06;6.70;;;1.60;;
44139;SDS011;29803;51.048;4.686;2022-10-16T04:38:37;6.97;;;1.60;;
44139;SDS011;29803;51.048;4.686;2022-10-16T04:41:07;4.45;;;1.60;;
44139;SDS011;29803;51.048;4.686;2022-10-16T04:43:38;8.02;;;1.83;;
44139;SDS011;29803;51.048;4.686;2022-10-16T04:46:08;4.65;;;1.80;;
44139;SDS011;29803;51.048;4.686;2022-10-16T04:48:40;11.05;;;2.55;;
44139;SDS011;29803;51.048;4.686;2022-10-16T04:51:10;6.85;;;2.00;;
44139;SDS011;29803;51.048;4.686;2022-10-16T04:53:41;4.90;;;1.90;;
44139;SDS011;29803;51.048;4.686;2022-10-16T04:56:11;4.13;;;2.28;;
44139;SDS011;29803;51.048;4.686;2022-10-16T04:58:42;7.38;;;1.80;;
44139;SDS011;29803;51.048;4.686;2022-10-16T05:01:12;6.88;;;2.53;;
44139;SDS011;29803;51.048;4.686;2022-10-16T05:03:43;5.32;;;1.90;;
44139;SDS011;29803;51.048;4.686;2022-10-16T05:06:13;5.13;;;2.28;;
44139;SDS011;29803;51.048;4.686;2022-10-16T05:08:44;4.43;;;2.20;;
44139;SDS011;29803;51.048;4.686;2022-10-16T05:11:14;11.77;;;3.42;;
44139;SDS011;29803;51.048;4.686;2022-10-16T05:13:45;8.02;;;3.38;;
44139;SDS011;29803;51.048;4.686;2022-10-16T05:16:15;8.63;;;4.57;;
44139;SDS011;29803;51.048;4.686;2022-10-16T05:18:46;9.05;;;4.63;;
44139;SDS011;29803;51.048;4.686;2022-10-16T05:21:16;10.57;;;4.38;;
44139;SDS011;29803;51.048;4.686;2022-10-16T05:23:47;9.57;;;3.70;;
44139;SDS011;29803;51.048;4.686;2022-10-16T05:26:17;12.98;;;3.28;;
44139;SDS011;29803;51.048;4.686;2022-10-16T05:28:48;5.78;;;3.13;;
44139;SDS011;29803;51.048;4.686;2022-10-16T05:31:19;6.05;;;2.78;;
44139;SDS011;29803;51.048;4.686;2022-10-16T05:33:50;6.53;;;2.55;;
44139;SDS011;29803;51.048;4.686;2022-10-16T05:36:20;8.23;;;2.63;;
44139;SDS011;29803;51.048;4.686;2022-10-16T05:38:51;3.95;;;2.13;;
44139;SDS011;29803;51.048;4.686;2022-10-16T05:41:22;4.93;;;2.15;;
44139;SDS011;29803;51.048;4.686;2022-10-16T05:43:55;5.63;;;2.58;;
44139;SDS011;29803;51.048;4.686;2022-10-16T05:46:25;5.10;;;2.33;;
44139;SDS011;29803;51.048;4.686;2022-10-16T05:48:59;7.00;;;2.42;;
44139;SDS011;29803;51.048;4.686;2022-10-16T05:51:29;5.70;;;2.60;;
44139;SDS011;29803;51.048;4.686;2022-10-16T05:54:00;6.43;;;2.45;;
44139;SDS011;29803;51.048;4.686;2022-10-16T05:56:30;3.28;;;2.53;;
44139;SDS011;29803;51.048;4.686;2022-10-16T05:59:01;8.45;;;2.50;;
44139;SDS011;29803;51.048;4.686;2022-10-16T06:01:33;7.85;;;2.70;;
44139;SDS011;29803;51.048;4.686;2022-10-16T06:04:04;6.07;;;2.88;;
44139;SDS011;29803;51.048;4.686;2022-10-16T06:06:34;11.88;;;3.40;;
44139;SDS011;29803;51.048;4.686;2022-10-16T06:09:06;5.70;;;3.28;;
44139;SDS011;29803;51.048;4.686;2022-10-16T06:11:36;5.75;;;2.95;;
44139;SDS011;29803;51.048;4.686;2022-10-16T06:14:07;7.72;;;2.67;;
44139;SDS011;29803;51.048;4.686;2022-10-16T06:16:38;9.32;;;3.05;;
44139;SDS011;29803;51.048;4.686;2022-10-16T06:19:09;4.93;;;2.70;;
44139;SDS011;29803;51.048;4.686;2022-10-16T06:21:39;7.15;;;2.97;;
44139;SDS011;29803;51.048;4.686;2022-10-16T06:24:10;5.55;;;2.55;;
44139;SDS011;29803;51.048;4.686;2022-10-16T06:26:41;6.75;;;2.70;;
44139;SDS011;29803;51.048;4.686;2022-10-16T06:29:11;4.65;;;2.30;;
44139;SDS011;29803;51.048;4.686;2022-10-16T06:31:42;5.45;;;2.47;;
44139;SDS011;29803;51.048;4.686;2022-10-16T06:34:12;4.82;;;2.40;;
44139;SDS011;29803;51.048;4.686;2022-10-16T06:36:43;4.65;;;2.80;;
44139;SDS011;29803;51.048;4.686;2022-10-16T06:39:14;5.47;;;2.60;;
44139;SDS011;29803;51.048;4.686;2022-10-16T06:41:44;9.40;;;2.75;;
44139;SDS011;29803;51.048;4.686;2022-10-16T06:44:15;8.02;;;2.70;;
44139;SDS011;29803;51.048;4.686;2022-10-16T06:46:45;7.63;;;2.15;;
44139;SDS011;29803;51.048;4.686;2022-10-16T06:49:16;4.90;;;2.30;;
44139;SDS011;29803;51.048;4.686;2022-10-16T06:54:21;5.75;;;3.00;;
44139;SDS011;29803;51.048;4.686;2022-10-16T06:56:52;6.00;;;2.35;;
44139;SDS011;29803;51.048;4.686;2022-10-16T06:59:24;12.85;;;2.53;;
44139;SDS011;29803;51.048;4.686;2022-10-16T07:01:55;8.82;;;2.30;;
44139;SDS011;29803;51.048;4.686;2022-10-16T07:04:25;9.55;;;2.15;;
44139;SDS011;29803;51.048;4.686;2022-10-16T07:06:55;5.85;;;2.05;;
44139;SDS011;29803;51.048;4.686;2022-10-16T07:09:26;4.60;;;1.70;;
44139;SDS011;29803;51.048;4.686;2022-10-16T07:11:56;8.30;;;2.00;;
44139;SDS011;29803;51.048;4.686;2022-10-16T07:14:27;3.53;;;1.88;;
44139;SDS011;29803;51.048;4.686;2022-10-16T07:16:58;2.85;;;1.80;;
44139;SDS011;29803;51.048;4.686;2022-10-16T07:19:28;6.10;;;2.03;;
44139;SDS011;29803;51.048;4.686;2022-10-16T07:21:59;4.72;;;2.22;;
44139;SDS011;29803;51.048;4.686;2022-10-16T07:24:29;9.60;;;2.00;;
44139;SDS011;29803;51.048;4.686;2022-10-16T07:26:59;7.50;;;2.25;;
44139;SDS011;29803;51.048;4.686;2022-10-16T07:29:30;5.75;;;1.75;;
44139;SDS011;29803;51.048;4.686;2022-10-16T07:32:01;6.63;;;2.55;;
44139;SDS011;29803;51.048;4.686;2022-10-16T07:34:32;5.57;;;1.90;;
44139;SDS011;29803;51.048;4.686;2022-10-16T07:37:02;6.22;;;2.22;;
44139;SDS011;29803;51.048;4.686;2022-10-16T07:39:33;10.27;;;2.13;;
44139;SDS011;29803;51.048;4.686;2022-10-16T07:42:03;6.07;;;2.28;;
44139;SDS011;29803;51.048;4.686;2022-10-16T07:44:34;12.00;;;2.20;;
44139;SDS011;29803;51.048;4.686;2022-10-16T07:47:05;8.85;;;2.38;;
44139;SDS011;29803;51.048;4.686;2022-10-16T07:49:35;4.93;;;1.90;;
44139;SDS011;29803;51.048;4.686;2022-10-16T07:52:06;6.20;;;1.88;;
44139;SDS011;29803;51.048;4.686;2022-10-16T07:54:36;3.67;;;1.70;;
44139;SDS011;29803;51.048;4.686;2022-10-16T07:57:07;3.60;;;1.65;;
44139;SDS011;29803;51.048;4.686;2022-10-16T07:59:37;5.40;;;1.77;;
44139;SDS011;29803;51.048;4.686;2022-10-16T08:02:08;4.80;;;1.73;;
44139;SDS011;29803;51.048;4.686;2022-10-16T08:04:38;3.63;;;1.63;;
44139;SDS011;29803;51.048;4.686;2022-10-16T08:07:09;2.97;;;1.48;;
44139;SDS011;29803;51.048;4.686;2022-10-16T08:09:39;3.55;;;1.45;;
44139;SDS011;29803;51.048;4.686;2022-10-16T08:12:10;5.78;;;1.92;;
44139;SDS011;29803;51.048;4.686;2022-10-16T08:14:41;5.93;;;1.95;;
44139;SDS011;29803;51.048;4.686;2022-10-16T08:17:13;1.95;;;1.20;;
44139;SDS011;29803;51.048;4.686;2022-10-16T08:19:47;6.50;;;1.30;;
44139;SDS011;29803;51.048;4.686;2022-10-16T08:22:17;6.82;;;1.75;;
44139;SDS011;29803;51.048;4.686;2022-10-16T08:24:48;5.07;;;1.60;;
44139;SDS011;29803;51.048;4.686;2022-10-16T08:27:18;4.63;;;1.40;;
44139;SDS011;29803;51.048;4.686;2022-10-16T08:29:52;4.70;;;1.48;;
44139;SDS011;29803;51.048;4.686;2022-10-16T08:32:22;5.65;;;1.88;;
44139;SDS011;29803;51.048;4.686;2022-10-16T08:34:53;6.68;;;1.35;;
44139;SDS011;29803;51.048;4.686;2022-10-16T08:37:23;3.67;;;1.42;;
44139;SDS011;29803;51.048;4.686;2022-10-16T08:39:57;2.95;;;1.40;;
44139;SDS011;29803;51.048;4.686;2022-10-16T08:45:27;4.65;;;1.60;;
44139;SDS011;29803;51.048;4.686;2022-10-16T08:48:46;6.03;;;1.70;;
44139;SDS011;29803;51.048;4.686;2022-10-16T08:51:30;9.88;;;1.60;;
44139;SDS011;29803;51.048;4.686;2022-10-16T08:54:06;4.07;;;1.25;;
44139;SDS011;29803;51.048;4.686;2022-10-16T08:56:48;3.80;;;1.10;;
44139;SDS011;29803;51.048;4.686;2022-10-16T08:59:18;5.18;;;1.63;;
44139;SDS011;29803;51.048;4.686;2022-10-16T09:01:50;4.82;;;1.60;;
44139;SDS011;29803;51.048;4.686;2022-10-16T09:07:16;6.18;;;1.42;;
44139;SDS011;29803;51.048;4.686;2022-10-16T09:12:39;7.55;;;1.85;;
44139;SDS011;29803;51.048;4.686;2022-10-16T09:15:44;4.78;;;1.30;;
44139;SDS011;29803;51.048;4.686;2022-10-16T09:23:45;7.35;;;1.73;;
44139;SDS011;29803;51.048;4.686;2022-10-16T09:26:17;9.98;;;1.90;;
44139;SDS011;29803;51.048;4.686;2022-10-16T09:28:51;5.22;;;1.50;;
44139;SDS011;29803;51.048;4.686;2022-10-16T09:31:23;6.50;;;1.58;;
44139;SDS011;29803;51.048;4.686;2022-10-16T09:33:54;5.25;;;1.48;;
44139;SDS011;29803;51.048;4.686;2022-10-16T09:36:28;8.48;;;1.65;;
44139;SDS011;29803;51.048;4.686;2022-10-16T09:39:09;5.28;;;1.63;;
44139;SDS011;29803;51.048;4.686;2022-10-16T09:41:42;10.82;;;1.73;;
44139;SDS011;29803;51.048;4.686;2022-10-16T09:44:19;7.53;;;1.40;;
44139;SDS011;29803;51.048;4.686;2022-10-16T09:47:04;4.47;;;1.67;;
44139;SDS011;29803;51.048;4.686;2022-10-16T09:49:50;3.78;;;1.15;;
44139;SDS011;29803;51.048;4.686;2022-10-16T09:52:26;9.10;;;1.42;;
44139;SDS011;29803;51.048;4.686;2022-10-16T09:57:28;10.95;;;1.40;;
44139;SDS011;29803;51.048;4.686;2022-10-16T10:00:00;8.73;;;1.85;;
44139;SDS011;29803;51.048;4.686;2022-10-16T10:02:38;9.73;;;1.58;;
44139;SDS011;29803;51.048;4.686;2022-10-16T10:05:20;8.88;;;2.00;;
44139;SDS011;29803;51.048;4.686;2022-10-16T10:08:01;6.40;;;1.40;;
44139;SDS011;29803;51.048;4.686;2022-10-16T10:10:41;9.35;;;1.88;;
44139;SDS011;29803;51.048;4.686;2022-10-16T10:13:19;5.07;;;1.23;;
44139;SDS011;29803;51.048;4.686;2022-10-16T10:15:51;5.88;;;1.27;;
44139;SDS011;29803;51.048;4.686;2022-10-16T10:18:23;6.28;;;1.20;;
44139;SDS011;29803;51.048;4.686;2022-10-16T10:21:01;7.38;;;1.40;;
44139;SDS011;29803;51.048;4.686;2022-10-16T10:23:33;10.35;;;1.80;;
44139;SDS011;29803;51.048;4.686;2022-10-16T10:31:34;6.40;;;1.40;;
44139;SDS011;29803;51.048;4.686;2022-10-16T10:37:42;11.15;;;1.40;;
44139;SDS011;29803;51.048;4.686;2022-10-16T10:40:15;6.55;;;1.50;;
44139;SDS011;29803;51.048;4.686;2022-10-16T10:42:49;4.07;;;1.73;;
44139;SDS011;29803;51.048;4.686;2022-10-16T10:45:28;11.57;;;1.88;;
44139;SDS011;29803;51.048;4.686;2022-10-16T10:50:56;7.68;;;1.95;;
44139;SDS011;29803;51.048;4.686;2022-10-16T10:59:06;9.77;;;1.70;;
44139;SDS011;29803;51.048;4.686;2022-10-16T11:01:56;12.43;;;1.95;;
44139;SDS011;29803;51.048;4.686;2022-10-16T11:04:50;7.32;;;1.20;;
44139;SDS011;29803;51.048;4.686;2022-10-16T11:07:45;3.05;;;1.08;;
44139;SDS011;29803;51.048;4.686;2022-10-16T11:10:30;5.47;;;1.17;;
44139;SDS011;29803;51.048;4.686;2022-10-16T11:13:19;10.10;;;1.80;;
44139;SDS011;29803;51.048;4.686;2022-10-16T11:15:57;4.93;;;1.00;;
44139;SDS011;29803;51.048;4.686;2022-10-16T11:18:32;4.95;;;1.23;;
44139;SDS011;29803;51.048;4.686;2022-10-16T11:21:10;6.20;;;1.48;;
44139;SDS011;29803;51.048;4.686;2022-10-16T11:23:51;4.88;;;1.25;;
44139;SDS011;29803;51.048;4.686;2022-10-16T11:26:28;6.85;;;1.27;;
44139;SDS011;29803;51.048;4.686;2022-10-16T11:29:04;7.88;;;1.70;;
44139;SDS011;29803;51.048;4.686;2022-10-16T11:31:45;7.63;;;1.42;;
44139;SDS011;29803;51.048;4.686;2022-10-16T11:34:25;8.48;;;1.50;;
44139;SDS011;29803;51.048;4.686;2022-10-16T11:37:09;5.43;;;0.90;;
44139;SDS011;29803;51.048;4.686;2022-10-16T11:39:44;4.88;;;1.38;;
44139;SDS011;29803;51.048;4.686;2022-10-16T11:42:18;6.75;;;1.60;;
44139;SDS011;29803;51.048;4.686;2022-10-16T11:44:57;3.22;;;1.17;;
44139;SDS011;29803;51.048;4.686;2022-10-16T11:55:44;5.40;;;1.20;;
44139;SDS011;29803;51.048;4.686;2022-10-16T11:58:19;4.78;;;1.30;;
44139;SDS011;29803;51.048;4.686;2022-10-16T12:01:27;8.88;;;1.45;;
44139;SDS011;29803;51.048;4.686;2022-10-16T12:04:17;3.42;;;1.08;;
44139;SDS011;29803;51.048;4.686;2022-10-16T12:06:59;3.05;;;1.05;;
44139;SDS011;29803;51.048;4.686;2022-10-16T12:09:39;5.93;;;1.05;;
44139;SDS011;29803;51.048;4.686;2022-10-16T12:15:02;4.90;;;1.40;;
44139;SDS011;29803;51.048;4.686;2022-10-16T12:17:37;3.60;;;1.10;;
44139;SDS011;29803;51.048;4.686;2022-10-16T12:22:47;3.55;;;1.05;;
44139;SDS011;29803;51.048;4.686;2022-10-16T12:25:20;3.03;;;0.85;;
44139;SDS011;29803;51.048;4.686;2022-10-16T12:30:28;3.08;;;0.93;;
44139;SDS011;29803;51.048;4.686;2022-10-16T12:33:23;5.28;;;0.90;;
44139;SDS011;29803;51.048;4.686;2022-10-16T12:36:09;4.05;;;1.15;;
44139;SDS011;29803;51.048;4.686;2022-10-16T12:41:30;3.65;;;1.10;;
44139;SDS011;29803;51.048;4.686;2022-10-16T12:44:02;3.22;;;0.85;;
44139;SDS011;29803;51.048;4.686;2022-10-16T12:46:35;5.05;;;1.20;;
44139;SDS011;29803;51.048;4.686;2022-10-16T12:51:42;5.72;;;1.23;;
44139;SDS011;29803;51.048;4.686;2022-10-16T12:54:34;3.20;;;1.33;;
44139;SDS011;29803;51.048;4.686;2022-10-16T13:28:19;4.70;;;1.52;;
44139;SDS011;29803;51.048;4.686;2022-10-16T13:30:56;3.42;;;1.50;;
44139;SDS011;29803;51.048;4.686;2022-10-16T13:36:02;2.97;;;1.20;;
44139;SDS011;29803;51.048;4.686;2022-10-16T13:38:34;1.60;;;0.70;;
44139;SDS011;29803;51.048;4.686;2022-10-16T13:41:12;5.35;;;1.02;;
44139;SDS011;29803;51.048;4.686;2022-10-16T13:43:51;4.72;;;1.02;;
44139;SDS011;29803;51.048;4.686;2022-10-16T13:46:26;2.25;;;0.85;;
44139;SDS011;29803;51.048;4.686;2022-10-16T13:49:01;6.78;;;1.42;;
44139;SDS011;29803;51.048;4.686;2022-10-16T13:51:36;5.63;;;1.35;;
44139;SDS011;29803;51.048;4.686;2022-10-16T13:54:08;9.35;;;1.00;;
44139;SDS011;29803;51.048;4.686;2022-10-16T13:56:41;4.95;;;0.90;;
44139;SDS011;29803;51.048;4.686;2022-10-16T13:59:54;11.45;;;1.05;;
44139;SDS011;29803;51.048;4.686;2022-10-16T14:02:14;6.03;;;1.08;;
44139;SDS011;29803;51.048;4.686;2022-10-16T14:04:48;2.45;;;0.70;;
44139;SDS011;29803;51.048;4.686;2022-10-16T14:07:21;3.80;;;0.77;;
44139;SDS011;29803;51.048;4.686;2022-10-16T14:09:55;5.85;;;1.15;;
44139;SDS011;29803;51.048;4.686;2022-10-16T14:12:55;3.85;;;1.02;;
44139;SDS011;29803;51.048;4.686;2022-10-16T14:15:28;3.25;;;0.90;;
44139;SDS011;29803;51.048;4.686;2022-10-16T14:18:02;6.95;;;1.33;;
44139;SDS011;29803;51.048;4.686;2022-10-16T14:20:34;5.38;;;1.23;;
44139;SDS011;29803;51.048;4.686;2022-10-16T14:23:18;5.10;;;1.17;;
44139;SDS011;29803;51.048;4.686;2022-10-16T14:25:51;4.25;;;1.00;;
44139;SDS011;29803;51.048;4.686;2022-10-16T14:28:22;4.45;;;1.27;;
44139;SDS011;29803;51.048;4.686;2022-10-16T14:30:54;5.28;;;1.10;;
44139;SDS011;29803;51.048;4.686;2022-10-16T14:38:40;4.63;;;1.20;;
44139;SDS011;29803;51.048;4.686;2022-10-16T14:41:13;6.30;;;1.20;;
44139;SDS011;29803;51.048;4.686;2022-10-16T14:43:43;5.47;;;1.38;;
44139;SDS011;29803;51.048;4.686;2022-10-16T14:46:18;4.25;;;1.15;;
44139;SDS011;29803;51.048;4.686;2022-10-16T14:48:50;6.63;;;1.17;;
44139;SDS011;29803;51.048;4.686;2022-10-16T14:51:24;3.13;;;1.50;;
44139;SDS011;29803;51.048;4.686;2022-10-16T14:53:54;4.97;;;1.17;;
44139;SDS011;29803;51.048;4.686;2022-10-16T14:56:26;3.55;;;1.05;;
44139;SDS011;29803;51.048;4.686;2022-10-16T14:59:00;4.43;;;1.20;;
44139;SDS011;29803;51.048;4.686;2022-10-16T15:01:31;4.55;;;1.42;;
44139;SDS011;29803;51.048;4.686;2022-10-16T15:04:06;4.55;;;1.40;;
44139;SDS011;29803;51.048;4.686;2022-10-16T15:06:41;8.27;;;1.40;;
44139;SDS011;29803;51.048;4.686;2022-10-16T15:09:12;6.32;;;1.70;;
44139;SDS011;29803;51.048;4.686;2022-10-16T15:11:43;5.28;;;1.60;;
44139;SDS011;29803;51.048;4.686;2022-10-16T15:14:14;7.20;;;2.20;;
44139;SDS011;29803;51.048;4.686;2022-10-16T15:16:44;6.22;;;1.42;;
44139;SDS011;29803;51.048;4.686;2022-10-16T15:19:15;4.85;;;1.48;;
44139;SDS011;29803;51.048;4.686;2022-10-16T15:21:46;3.42;;;1.45;;
44139;SDS011;29803;51.048;4.686;2022-10-16T15:24:17;2.80;;;1.40;;
44139;SDS011;29803;51.048;4.686;2022-10-16T15:26:48;6.57;;;1.45;;
44139;SDS011;29803;51.048;4.686;2022-10-16T15:29:21;5.45;;;1.52;;
44139;SDS011;29803;51.048;4.686;2022-10-16T15:31:52;3.20;;;1.35;;
44139;SDS011;29803;51.048;4.686;2022-10-16T15:34:23;4.28;;;1.50;;
44139;SDS011;29803;51.048;4.686;2022-10-16T15:36:54;5.00;;;1.40;;
44139;SDS011;29803;51.048;4.686;2022-10-16T15:39:25;3.00;;;1.20;;
44139;SDS011;29803;51.048;4.686;2022-10-16T15:41:55;5.75;;;1.25;;
44139;SDS011;29803;51.048;4.686;2022-10-16T15:44:26;5.65;;;1.17;;
44139;SDS011;29803;51.048;4.686;2022-10-16T15:47:00;3.63;;;1.42;;
44139;SDS011;29803;51.048;4.686;2022-10-16T15:49:31;6.80;;;2.08;;
44139;SDS011;29803;51.048;4.686;2022-10-16T15:52:01;7.28;;;1.92;;
44139;SDS011;29803;51.048;4.686;2022-10-16T15:54:33;15.48;;;5.00;;
44139;SDS011;29803;51.048;4.686;2022-10-16T15:57:03;7.75;;;2.88;;
44139;SDS011;29803;51.048;4.686;2022-10-16T15:59:34;4.50;;;1.92;;
44139;SDS011;29803;51.048;4.686;2022-10-16T16:02:04;8.05;;;1.80;;
44139;SDS011;29803;51.048;4.686;2022-10-16T16:04:35;7.80;;;1.85;;
44139;SDS011;29803;51.048;4.686;2022-10-16T16:07:05;10.70;;;3.20;;
44139;SDS011;29803;51.048;4.686;2022-10-16T16:09:37;9.00;;;2.90;;
44139;SDS011;29803;51.048;4.686;2022-10-16T16:12:08;7.72;;;2.28;;
44139;SDS011;29803;51.048;4.686;2022-10-16T16:14:38;5.30;;;2.53;;
44139;SDS011;29803;51.048;4.686;2022-10-16T16:17:09;5.40;;;2.17;;
44139;SDS011;29803;51.048;4.686;2022-10-16T16:19:39;6.13;;;2.30;;
44139;SDS011;29803;51.048;4.686;2022-10-16T16:22:09;5.28;;;2.17;;
44139;SDS011;29803;51.048;4.686;2022-10-16T16:24:40;4.93;;;2.40;;
44139;SDS011;29803;51.048;4.686;2022-10-16T16:27:10;10.88;;;3.03;;
44139;SDS011;29803;51.048;4.686;2022-10-16T16:29:41;7.93;;;2.97;;
44139;SDS011;29803;51.048;4.686;2022-10-16T16:32:11;9.98;;;3.08;;
44139;SDS011;29803;51.048;4.686;2022-10-16T16:34:42;7.60;;;3.50;;
44139;SDS011;29803;51.048;4.686;2022-10-16T16:37:13;6.57;;;2.60;;
44139;SDS011;29803;51.048;4.686;2022-10-16T16:39:43;9.13;;;3.05;;
44139;SDS011;29803;51.048;4.686;2022-10-16T16:42:14;8.80;;;3.53;;
44139;SDS011;29803;51.048;4.686;2022-10-16T16:44:44;11.00;;;3.83;;
44139;SDS011;29803;51.048;4.686;2022-10-16T16:47:14;12.63;;;3.50;;
44139;SDS011;29803;51.048;4.686;2022-10-16T16:49:45;12.48;;;3.80;;
44139;SDS011;29803;51.048;4.686;2022-10-16T16:52:16;9.50;;;4.07;;
44139;SDS011;29803;51.048;4.686;2022-10-16T16:54:47;10.38;;;3.72;;
44139;SDS011;29803;51.048;4.686;2022-10-16T16:57:21;10.23;;;3.78;;
44139;SDS011;29803;51.048;4.686;2022-10-16T16:59:51;9.48;;;3.55;;
44139;SDS011;29803;51.048;4.686;2022-10-16T17:02:22;10.27;;;3.83;;
44139;SDS011;29803;51.048;4.686;2022-10-16T17:04:52;12.20;;;5.13;;
44139;SDS011;29803;51.048;4.686;2022-10-16T17:07:23;10.32;;;4.88;;
44139;SDS011;29803;51.048;4.686;2022-10-16T17:09:55;9.98;;;3.67;;
44139;SDS011;29803;51.048;4.686;2022-10-16T17:12:26;6.18;;;2.72;;
44139;SDS011;29803;51.048;4.686;2022-10-16T17:14:56;7.68;;;3.00;;
44139;SDS011;29803;51.048;4.686;2022-10-16T17:17:26;9.52;;;3.20;;
44139;SDS011;29803;51.048;4.686;2022-10-16T17:19:57;8.70;;;3.38;;
44139;SDS011;29803;51.048;4.686;2022-10-16T17:22:27;16.25;;;6.20;;
44139;SDS011;29803;51.048;4.686;2022-10-16T17:24:58;14.43;;;5.03;;